Terminal Aerodrome Forecast
Issued by NWS Brownsville, TX

Home | Current Version | Previous Version | Text Only | Print | Product List | Glossary On
Versions: 1 2 3 4 5 6 7 8 9 10 11 12
821
FTUS44 KBRO 130520
TAFHRL
TAF
KHRL 130520Z 1306/1406 14007KT P6SM SKC
     FM130900 10002KT 5SM BR SKC
     FM131200 00000KT 1/2SM FG FEW250
     FM131500 15004KT P6SM FEW250
     FM131800 14012KT P6SM BKN250
     FM140300 12005KT P6SM SKC=

USA.gov is the U.S. government's official web portal to all federal, state and local government web resources and services.